createdAt,value
2023-02-11T00:04:23.663Z,101143.98
2023-02-11T00:09:26.363Z,101114.94
2023-02-11T00:14:29.170Z,101090.03
2023-02-11T00:19:31.966Z,101085.73
2023-02-11T00:24:36.448Z,101069.48
2023-02-11T00:29:39.557Z,101053.40
2023-02-11T00:34:42.312Z,101044.58
2023-02-11T00:39:45.024Z,101053.95
2023-02-11T00:44:47.759Z,101043.76
2023-02-11T00:49:50.509Z,101034.42
2023-02-11T00:54:53.235Z,101024.76
2023-02-11T00:59:56.013Z,101001.58
2023-02-11T01:05:00.137Z,100992.05
2023-02-11T01:10:04.492Z,100975.27
2023-02-11T01:15:09.163Z,100958.64
2023-02-11T01:20:17.253Z,100923.89
2023-02-11T01:25:20.148Z,100910.55
2023-02-11T01:30:23.150Z,100902.27
2023-02-11T01:35:25.966Z,100878.56
2023-02-11T01:40:28.764Z,100886.02
2023-02-11T01:45:47.283Z,100879.24
2023-02-11T01:50:55.047Z,100872.51
2023-02-11T01:56:17.405Z,100863.15
2023-02-11T02:01:26.863Z,100853.30
2023-02-11T02:06:35.713Z,100871.98
2023-02-11T02:11:38.508Z,100855.19
2023-02-11T02:16:41.537Z,100836.14
2023-02-11T02:22:25.173Z,100833.73
2023-02-11T02:27:56.425Z,100826.80
2023-02-11T02:33:23.422Z,100810.19
2023-02-11T02:38:46.589Z,100799.29
2023-02-11T02:43:51.492Z,100769.55
2023-02-11T02:48:55.756Z,100765.73
2023-02-11T02:54:05.549Z,100745.50
2023-02-11T02:59:23.639Z,100754.83
2023-02-11T03:04:38.058Z,100750.65
2023-02-11T03:09:48.499Z,100730.07
2023-02-11T03:14:52.173Z,100718.48
2023-02-11T03:19:57.356Z,100708.11
2023-02-11T03:25:02.005Z,100707.76
2023-02-11T03:30:18.863Z,100684.25
2023-02-11T03:35:32.986Z,100675.61
2023-02-11T03:40:38.435Z,100665.41
2023-02-11T03:45:41.474Z,100668.52
2023-02-11T03:50:47.310Z,100665.24
2023-02-11T03:55:52.127Z,100666.11
2023-02-11T04:00:55.133Z,100665.60
2023-02-11T04:05:57.975Z,100658.70
2023-02-11T04:11:00.774Z,100645.20
2023-02-11T04:16:03.697Z,100635.18
2023-02-11T04:21:06.583Z,100622.55
2023-02-11T04:26:09.294Z,100600.43
2023-02-11T04:31:13.007Z,100590.75
2023-02-11T04:36:15.895Z,100585.40
2023-02-11T04:41:18.630Z,100583.31
2023-02-11T04:46:21.479Z,100573.48
2023-02-11T04:51:24.543Z,100570.69
2023-02-11T04:56:27.247Z,100564.48
2023-02-11T05:01:30.158Z,100550.13
2023-02-11T05:06:33.062Z,100551.16
2023-02-11T05:11:36.948Z,100537.50
2023-02-11T05:16:39.688Z,100527.81
2023-02-11T05:21:53.140Z,100517.25
2023-02-11T05:27:00.157Z,100495.79
2023-02-11T05:32:02.899Z,100491.30
2023-02-11T05:37:05.696Z,100488.02
2023-02-11T05:42:08.706Z,100473.33
2023-02-11T05:47:11.509Z,100458.81
2023-02-11T05:52:14.511Z,100452.95
2023-02-11T05:57:18.033Z,100448.45
2023-02-11T06:02:20.811Z,100439.98
2023-02-11T06:07:23.735Z,100436.20
2023-02-11T06:12:27.356Z,100430.65
2023-02-11T06:17:33.760Z,100421.85
2023-02-11T06:22:36.643Z,100421.67
2023-02-11T06:27:39.767Z,100420.63
2023-02-11T06:32:44.921Z,100404.58
2023-02-11T06:37:49.763Z,100404.74
2023-02-11T06:42:52.752Z,100399.40
2023-02-11T06:47:55.675Z,100400.42
2023-02-11T06:53:01.546Z,100392.31
2023-02-11T06:58:04.277Z,100387.65
2023-02-11T07:03:07.087Z,100359.50
2023-02-11T07:08:10.050Z,100346.73
2023-02-11T07:13:12.827Z,100346.89
2023-02-11T07:18:15.778Z,100347.76
2023-02-11T07:23:18.473Z,100334.11
2023-02-11T07:28:21.213Z,100328.75
2023-02-11T07:33:24.041Z,100337.04
2023-02-11T07:38:27.468Z,100343.09
2023-02-11T07:43:31.582Z,100350.52
2023-02-11T07:48:34.842Z,100347.93
2023-02-11T07:53:37.918Z,100330.80
2023-02-11T07:58:44.240Z,100317.17
2023-02-11T08:03:46.978Z,100307.34
2023-02-11T08:08:50.221Z,100293.69
2023-02-11T08:13:53.749Z,100267.93
2023-02-11T08:18:57.817Z,100276.58
2023-02-11T08:24:03.233Z,100267.42
2023-02-11T08:29:10.226Z,100274.33
2023-02-11T08:34:14.559Z,100254.98
2023-02-11T08:39:20.770Z,100252.52
2023-02-11T08:44:25.163Z,100261.68
2023-02-11T08:49:28.185Z,100250.09
2023-02-11T08:54:31.581Z,100236.77
2023-02-11T08:59:34.654Z,100245.41
2023-02-11T09:04:37.360Z,100251.97
2023-02-11T09:09:40.071Z,100237.44
2023-02-11T09:14:43.138Z,100237.25
2023-02-11T09:19:46.013Z,100212.34
2023-02-11T09:24:48.962Z,100200.71
2023-02-11T09:29:51.886Z,100197.42
2023-02-11T09:34:54.594Z,100181.16
2023-02-11T09:39:57.292Z,100197.23
2023-02-11T09:45:03.916Z,100210.89
2023-02-11T09:50:18.484Z,100224.56
2023-02-11T09:55:39.166Z,100218.15
2023-02-11T10:01:02.608Z,100221.27
2023-02-11T10:06:28.437Z,100206.37
2023-02-11T10:11:48.956Z,100205.84
2023-02-11T10:17:31.900Z,100203.58
2023-02-11T10:22:45.728Z,100179.27
2023-02-11T10:27:49.713Z,100182.86
2023-02-11T10:32:59.858Z,100171.02
2023-02-11T10:38:02.764Z,100172.91
2023-02-11T10:43:11.634Z,100162.73
2023-02-11T10:48:36.480Z,100157.84
2023-02-11T10:53:39.928Z,100162.16
2023-02-11T10:58:59.081Z,100153.35
2023-02-11T11:04:01.933Z,100141.72
2023-02-11T11:09:04.746Z,100125.79
2023-02-11T11:14:20.426Z,100145.10
2023-02-11T11:19:25.481Z,100148.84
2023-02-11T11:24:44.161Z,100157.85
2023-02-11T11:29:50.334Z,100162.52
2023-02-11T11:35:00.422Z,100154.69
2023-02-11T11:40:09.562Z,100155.77
2023-02-11T11:45:15.331Z,100172.52
2023-02-11T11:50:34.295Z,100172.95
2023-02-11T11:55:43.616Z,100179.58
2023-02-11T12:01:01.986Z,100192.39
2023-02-11T12:06:39.257Z,100192.88
2023-02-11T12:11:58.316Z,100197.20
2023-02-11T12:17:17.465Z,100191.28
2023-02-11T12:22:30.140Z,100187.72
2023-02-11T12:27:45.227Z,100187.21
2023-02-11T12:33:25.152Z,100189.26
2023-02-11T12:38:32.634Z,100194.38
2023-02-11T12:43:40.828Z,100196.73
2023-02-11T12:49:01.959Z,100190.78
2023-02-11T12:54:11.049Z,100184.48
2023-02-11T12:59:30.530Z,100182.89
2023-02-11T13:04:42.132Z,100190.84
2023-02-11T13:09:51.523Z,100204.34
2023-02-11T13:14:58.666Z,100212.64
2023-02-11T13:20:15.029Z,100217.63
2023-02-11T13:25:43.178Z,100211.30
2023-02-11T13:30:52.023Z,100220.79
2023-02-11T13:36:04.754Z,100223.13
2023-02-11T13:41:42.730Z,100220.25
2023-02-11T13:47:06.070Z,100227.41
2023-02-11T13:52:25.829Z,100217.00
2023-02-11T13:57:34.878Z,100236.15
2023-02-11T14:02:58.470Z,100236.49
2023-02-11T14:08:26.429Z,100239.95
2023-02-11T14:13:30.841Z,100249.48
2023-02-11T14:18:50.004Z,100267.98
2023-02-11T14:23:56.213Z,100283.61
2023-02-11T14:29:21.097Z,100283.08
2023-02-11T14:34:49.740Z,100291.91
2023-02-11T14:40:23.976Z,100305.65
2023-02-11T14:45:29.238Z,100315.05
2023-02-11T14:50:38.768Z,100332.05
2023-02-11T14:55:44.609Z,100336.88
2023-02-11T15:01:09.261Z,100346.42
2023-02-11T15:06:19.866Z,100353.05
2023-02-11T15:11:25.422Z,100357.20
2023-02-11T15:16:29.151Z,100363.08
2023-02-11T15:21:34.653Z,100375.41
2023-02-11T15:26:37.422Z,100385.14
2023-02-11T15:31:40.245Z,100395.37
2023-02-11T15:36:43.348Z,100414.48
2023-02-11T15:41:46.347Z,100426.98
2023-02-11T15:46:49.144Z,100435.16
2023-02-11T15:51:53.956Z,100448.73
2023-02-11T15:57:04.581Z,100459.69
2023-02-11T16:02:17.906Z,100470.11
2023-02-11T16:07:49.924Z,100485.39
2023-02-11T16:12:52.820Z,100495.60
2023-02-11T16:17:55.662Z,100510.01
2023-02-11T16:22:58.809Z,100521.66
2023-02-11T16:28:01.704Z,100537.45
2023-02-11T16:33:05.560Z,100551.39
2023-02-11T16:38:08.345Z,100568.60
2023-02-11T16:43:11.143Z,100579.39
2023-02-11T16:48:18.683Z,100587.07
2023-02-11T16:53:24.591Z,100598.95
2023-02-11T16:58:27.435Z,100614.32
2023-02-11T17:03:31.566Z,100626.04
2023-02-11T17:08:34.265Z,100643.08
2023-02-11T17:13:37.180Z,100651.59
2023-02-11T17:18:39.913Z,100664.48
2023-02-11T17:23:43.035Z,100683.59
2023-02-11T17:28:47.614Z,100701.65
2023-02-11T17:33:50.540Z,100738.67
2023-02-11T17:38:55.151Z,100773.47
2023-02-11T17:43:59.075Z,100801.29
2023-02-11T17:49:02.800Z,100825.95
2023-02-11T17:54:09.091Z,100840.02
2023-02-11T17:59:13.497Z,100853.39
2023-02-11T18:04:18.442Z,100864.30
2023-02-11T18:09:21.403Z,100878.67
2023-02-11T18:14:24.714Z,100899.11
2023-02-11T18:19:30.674Z,100926.08
2023-02-11T18:24:33.418Z,100944.20
2023-02-11T18:29:36.281Z,100953.48
2023-02-11T18:34:40.871Z,100958.97
2023-02-11T18:39:43.729Z,100977.76
2023-02-11T18:44:46.635Z,100991.34
2023-02-11T18:49:49.328Z,101013.90
2023-02-11T18:54:52.544Z,101027.27
2023-02-11T18:59:55.299Z,101041.67
2023-02-11T19:04:58.226Z,101052.29
2023-02-11T19:10:01.027Z,101069.19
2023-02-11T19:15:04.452Z,101077.75
2023-02-11T19:20:08.410Z,101090.70
2023-02-11T19:25:12.239Z,101109.98
2023-02-11T19:30:15.119Z,101125.52
2023-02-11T19:35:19.429Z,101145.55
2023-02-11T19:40:22.268Z,101156.41
2023-02-11T19:45:26.593Z,101167.17
2023-02-11T19:50:29.395Z,101179.67
2023-02-11T19:55:34.864Z,101183.59
2023-02-11T20:00:37.590Z,101203.14
2023-02-11T20:05:42.409Z,101205.13
2023-02-11T20:10:45.217Z,101220.40
2023-02-11T20:15:48.081Z,101234.67
2023-02-11T20:20:50.907Z,101243.13
2023-02-11T20:25:54.311Z,101244.59
2023-02-11T20:30:58.493Z,101251.64
2023-02-11T20:36:05.436Z,101269.19
2023-02-11T20:41:20.441Z,101283.16
2023-02-11T20:46:25.987Z,101296.05
2023-02-11T20:51:31.628Z,101301.94
2023-02-11T20:56:37.022Z,101311.59
2023-02-11T21:01:43.568Z,101319.69
2023-02-11T21:06:49.168Z,101334.45
2023-02-11T21:11:52.668Z,101338.56
2023-02-11T21:16:56.066Z,101352.13
2023-02-11T21:22:00.802Z,101351.08
2023-02-11T21:27:03.990Z,101359.71
2023-02-11T21:32:06.823Z,101372.02
2023-02-11T21:37:09.635Z,101378.59
2023-02-11T21:42:12.377Z,101388.77
2023-02-11T21:47:15.104Z,101405.33
2023-02-11T21:52:17.893Z,101404.52
2023-02-11T21:57:20.704Z,101417.20
2023-02-11T22:02:23.477Z,101434.41
2023-02-11T22:07:28.181Z,101431.34
2023-02-11T22:12:31.000Z,101449.48
2023-02-11T22:17:34.350Z,101462.98
2023-02-11T22:22:37.258Z,101468.88
2023-02-11T22:27:40.050Z,101466.61
2023-02-11T22:32:42.746Z,101481.09
2023-02-11T22:37:45.561Z,101483.82
2023-02-11T22:42:48.369Z,101501.84
2023-02-11T22:47:51.135Z,101524.31
2023-02-11T22:52:53.848Z,101531.55
2023-02-11T22:57:56.561Z,101540.41
2023-02-11T23:02:59.382Z,101530.80
2023-02-11T23:08:02.253Z,101530.73
2023-02-11T23:13:06.480Z,101540.08
2023-02-11T23:18:09.924Z,101546.09
2023-02-11T23:23:12.706Z,101566.19
2023-02-11T23:28:15.497Z,101580.61
2023-02-11T23:33:18.509Z,101580.17
2023-02-11T23:38:21.224Z,101580.08
2023-02-11T23:43:24.441Z,101599.75
2023-02-11T23:48:27.534Z,101613.98
2023-02-11T23:53:30.542Z,101631.25
2023-02-11T23:58:33.219Z,101640.55
